createdAt,value
2022-11-09T00:00:24.957Z,4.47
2022-11-09T00:03:01.476Z,3.60
2022-11-09T00:05:28.601Z,3.78
2022-11-09T00:08:02.642Z,4.07
2022-11-09T00:10:36.466Z,3.47
2022-11-09T00:13:10.512Z,4.25
2022-11-09T00:15:44.433Z,3.58
2022-11-09T00:18:11.542Z,4.60
2022-11-09T00:20:48.104Z,3.90
2022-11-09T00:23:30.467Z,3.30
2022-11-09T00:26:04.747Z,3.67
2022-11-09T00:28:38.494Z,3.10
2022-11-09T00:31:14.487Z,3.67
2022-11-09T00:33:42.218Z,3.50
2022-11-09T00:36:19.487Z,3.95
2022-11-09T00:39:02.464Z,3.88
2022-11-09T00:41:29.821Z,3.63
2022-11-09T00:44:03.559Z,3.15
2022-11-09T00:46:30.813Z,3.70
2022-11-09T00:49:04.485Z,3.80
2022-11-09T00:51:31.660Z,3.97
2022-11-09T00:54:05.504Z,3.78
2022-11-09T00:56:32.561Z,3.70
2022-11-09T00:58:59.698Z,3.47
2022-11-09T01:01:33.588Z,3.65
2022-11-09T01:04:00.738Z,3.67
2022-11-09T01:06:34.852Z,3.17
2022-11-09T01:09:02.110Z,3.13
2022-11-09T01:11:35.548Z,3.33
2022-11-09T01:14:02.675Z,2.60
2022-11-09T01:16:36.615Z,2.70
2022-11-09T01:19:04.187Z,3.25
2022-11-09T01:21:44.459Z,3.83
2022-11-09T01:24:18.613Z,3.55
2022-11-09T01:26:52.455Z,2.70
2022-11-09T01:29:19.668Z,2.88
2022-11-09T01:31:55.503Z,3.10
2022-11-09T01:34:22.608Z,3.13
2022-11-09T01:36:59.489Z,4.20
2022-11-09T01:39:33.466Z,3.38
2022-11-09T01:42:00.554Z,3.80
2022-11-09T01:44:34.599Z,3.25
2022-11-09T01:47:13.969Z,3.00
2022-11-09T01:50:06.554Z,3.85
2022-11-09T01:52:41.740Z,3.13
2022-11-09T01:55:23.554Z,3.80
2022-11-09T01:57:54.455Z,2.97
2022-11-09T02:00:28.444Z,3.50
2022-11-09T02:03:11.260Z,3.90
2022-11-09T02:05:47.570Z,3.92
2022-11-09T02:08:18.380Z,3.80
2022-11-09T02:10:58.494Z,4.05
2022-11-09T02:13:27.125Z,3.15
2022-11-09T02:16:01.468Z,4.05
2022-11-09T02:18:35.469Z,3.85
2022-11-09T02:21:15.635Z,4.20
2022-11-09T02:23:52.474Z,3.72
2022-11-09T02:26:36.458Z,4.53
2022-11-09T02:29:06.369Z,4.05
2022-11-09T02:31:45.527Z,4.57
2022-11-09T02:34:17.194Z,4.85
2022-11-09T02:36:51.476Z,5.18
2022-11-09T02:39:20.914Z,4.50
2022-11-09T02:42:10.200Z,3.50
2022-11-09T02:44:53.522Z,4.45
2022-11-09T02:47:27.488Z,4.63
2022-11-09T02:49:54.896Z,4.72
2022-11-09T02:52:28.539Z,4.60
2022-11-09T02:54:55.707Z,4.45
2022-11-09T02:57:29.500Z,4.63
2022-11-09T02:59:56.662Z,3.90
2022-11-09T03:02:30.587Z,4.30
2022-11-09T03:04:57.736Z,4.35
2022-11-09T03:07:31.612Z,4.05
2022-11-09T03:10:05.492Z,3.92
2022-11-09T03:12:39.493Z,4.25
2022-11-09T03:15:08.812Z,4.13
2022-11-09T03:17:43.492Z,3.67
2022-11-09T03:20:17.567Z,4.22
2022-11-09T03:23:04.517Z,3.72
2022-11-09T03:25:31.535Z,4.10
2022-11-09T03:28:00.428Z,3.95
2022-11-09T03:30:34.463Z,5.60
2022-11-09T03:33:11.531Z,5.15
2022-11-09T03:35:38.718Z,4.85
2022-11-09T03:38:05.918Z,5.32
2022-11-09T03:40:40.482Z,4.80
2022-11-09T03:43:07.612Z,4.57
2022-11-09T03:45:41.485Z,5.85
2022-11-09T03:48:08.712Z,5.28
2022-11-09T03:50:47.452Z,3.88
2022-11-09T03:53:21.747Z,4.15
2022-11-09T03:55:49.173Z,3.15
2022-11-09T03:58:22.518Z,3.80
2022-11-09T04:00:56.583Z,4.75
2022-11-09T04:03:30.482Z,4.15
2022-11-09T04:06:06.518Z,4.72
2022-11-09T04:08:33.673Z,3.40
2022-11-09T04:11:00.914Z,3.75
2022-11-09T04:13:34.590Z,3.28
2022-11-09T04:16:08.510Z,3.55
2022-11-09T04:18:42.488Z,3.90
2022-11-09T04:21:24.032Z,3.35
2022-11-09T04:23:57.668Z,3.97
2022-11-09T04:26:31.557Z,4.10
2022-11-09T04:28:58.813Z,3.72
2022-11-09T04:31:32.538Z,3.78
2022-11-09T04:33:59.617Z,3.45
2022-11-09T04:36:26.743Z,3.53
2022-11-09T04:39:00.568Z,3.95
2022-11-09T04:41:35.548Z,4.38
2022-11-09T04:44:02.738Z,4.32
2022-11-09T04:46:36.599Z,4.65
2022-11-09T04:49:04.003Z,4.40
2022-11-09T04:51:37.517Z,4.22
2022-11-09T04:54:11.484Z,4.60
2022-11-09T04:56:45.533Z,4.68
2022-11-09T04:59:19.539Z,5.38
2022-11-09T05:01:47.093Z,5.55
2022-11-09T05:04:20.602Z,5.30
2022-11-09T05:06:47.798Z,4.97
2022-11-09T05:09:21.570Z,5.45
2022-11-09T05:11:48.769Z,5.78
2022-11-09T05:14:22.548Z,5.18
2022-11-09T05:16:49.702Z,4.32
2022-11-09T05:19:16.869Z,4.90
2022-11-09T05:21:50.530Z,3.85
2022-11-09T05:24:24.249Z,3.72
2022-11-09T05:27:00.540Z,3.60
2022-11-09T05:29:27.639Z,4.05
2022-11-09T05:32:01.570Z,3.65
2022-11-09T05:34:28.991Z,3.40
2022-11-09T05:37:03.798Z,4.13
2022-11-09T05:39:37.579Z,3.00
2022-11-09T05:42:04.780Z,3.80
2022-11-09T05:44:31.879Z,3.53
2022-11-09T05:47:05.529Z,3.13
2022-11-09T05:49:32.699Z,4.63
2022-11-09T05:52:06.582Z,3.67
2022-11-09T05:54:33.721Z,3.15
2022-11-09T05:57:08.600Z,2.92
2022-11-09T05:59:35.700Z,2.92
2022-11-09T06:02:02.988Z,2.50
2022-11-09T06:04:36.569Z,2.60
2022-11-09T06:07:03.761Z,2.90
2022-11-09T06:09:37.517Z,2.75
2022-11-09T06:12:05.187Z,3.00
2022-11-09T06:14:38.521Z,2.53
2022-11-09T06:17:12.487Z,2.75
2022-11-09T06:19:39.618Z,2.90
2022-11-09T06:22:20.604Z,3.78
2022-11-09T06:24:54.551Z,4.15
2022-11-09T06:27:28.534Z,3.40
2022-11-09T06:29:55.729Z,3.80
2022-11-09T06:32:29.598Z,3.60
2022-11-09T06:35:03.579Z,3.65
2022-11-09T06:37:30.673Z,4.00
2022-11-09T06:40:04.552Z,3.35
2022-11-09T06:42:31.940Z,3.38
2022-11-09T06:44:59.082Z,3.17
2022-11-09T06:47:35.527Z,3.30
2022-11-09T06:50:02.779Z,3.15
2022-11-09T06:52:36.513Z,3.60
2022-11-09T06:55:03.967Z,3.97
2022-11-09T06:57:31.268Z,4.03
2022-11-09T07:00:06.528Z,3.50
2022-11-09T07:02:40.506Z,3.95
2022-11-09T07:05:07.850Z,3.28
2022-11-09T07:07:41.593Z,3.35
2022-11-09T07:10:09.473Z,3.63
2022-11-09T07:12:37.052Z,3.08
2022-11-09T07:15:11.697Z,3.45
2022-11-09T07:17:46.512Z,3.00
2022-11-09T07:20:14.981Z,3.50
2022-11-09T07:22:48.627Z,2.65
2022-11-09T07:25:22.660Z,2.75
2022-11-09T07:27:56.538Z,2.53
2022-11-09T07:30:30.582Z,2.35
2022-11-09T07:33:09.668Z,2.40
2022-11-09T07:35:38.836Z,2.58
2022-11-09T07:38:12.552Z,2.80
2022-11-09T07:40:47.528Z,2.90
2022-11-09T07:43:21.778Z,2.70
2022-11-09T07:45:55.544Z,2.75
2022-11-09T07:48:22.732Z,2.60
2022-11-09T07:50:49.877Z,2.67
2022-11-09T07:53:24.715Z,2.40
2022-11-09T07:56:02.932Z,2.92
2022-11-09T07:58:37.534Z,2.22
2022-11-09T08:01:18.572Z,2.55
2022-11-09T08:03:52.504Z,2.72
2022-11-09T08:06:19.911Z,2.15
2022-11-09T08:08:53.531Z,2.15
2022-11-09T08:11:20.626Z,2.90
2022-11-09T08:13:54.731Z,2.45
2022-11-09T08:16:21.858Z,2.92
2022-11-09T08:18:51.124Z,2.63
2022-11-09T08:21:25.641Z,1.67
2022-11-09T08:24:06.587Z,2.28
2022-11-09T08:26:33.805Z,2.05
2022-11-09T08:29:07.545Z,2.22
2022-11-09T08:31:41.539Z,2.20
2022-11-09T08:34:14.642Z,1.80
2022-11-09T08:36:48.525Z,1.83
2022-11-09T08:39:16.176Z,2.90
2022-11-09T08:41:49.540Z,2.08
2022-11-09T08:44:23.545Z,2.13
2022-11-09T08:46:50.666Z,2.00
2022-11-09T08:49:24.505Z,1.73
2022-11-09T08:51:58.621Z,2.30
2022-11-09T08:54:25.685Z,2.55
2022-11-09T08:57:02.529Z,1.83
2022-11-09T08:59:36.666Z,2.13
2022-11-09T09:02:10.560Z,2.40
2022-11-09T09:04:37.653Z,2.03
2022-11-09T09:07:05.010Z,1.88
2022-11-09T09:09:38.664Z,2.08
2022-11-09T09:12:13.597Z,2.13
2022-11-09T09:14:40.851Z,1.98
2022-11-09T09:17:08.086Z,2.17
2022-11-09T09:19:44.803Z,2.33
2022-11-09T09:22:34.525Z,2.55
2022-11-09T09:25:08.686Z,2.40
2022-11-09T09:27:36.076Z,2.90
2022-11-09T09:30:10.568Z,2.10
2022-11-09T09:32:37.695Z,2.85
2022-11-09T09:35:11.626Z,2.05
2022-11-09T09:37:38.886Z,2.80
2022-11-09T09:40:13.690Z,2.22
2022-11-09T09:42:44.950Z,2.60
2022-11-09T09:45:41.559Z,2.17
2022-11-09T09:48:35.610Z,2.25
2022-11-09T09:51:25.538Z,2.65
2022-11-09T09:54:03.340Z,1.75
2022-11-09T09:56:50.240Z,1.83
2022-11-09T09:59:33.888Z,1.95
2022-11-09T10:02:07.503Z,1.88
2022-11-09T10:04:40.965Z,1.80
2022-11-09T10:07:28.547Z,1.98
2022-11-09T10:10:20.570Z,2.10
2022-11-09T10:12:56.455Z,1.90
2022-11-09T10:15:50.699Z,2.00
2022-11-09T10:18:43.519Z,2.60
2022-11-09T10:21:51.551Z,2.53
2022-11-09T10:24:44.379Z,3.28
2022-11-09T10:27:43.550Z,2.40
2022-11-09T10:30:17.484Z,2.53
2022-11-09T10:32:55.590Z,2.45
2022-11-09T10:35:45.266Z,2.40
2022-11-09T10:38:34.531Z,2.25
2022-11-09T10:41:17.560Z,2.28
2022-11-09T10:43:44.654Z,2.28
2022-11-09T10:46:18.699Z,1.70
2022-11-09T10:48:45.731Z,1.50
2022-11-09T10:51:48.563Z,2.03
2022-11-09T10:54:35.552Z,1.60
2022-11-09T10:57:16.651Z,1.92
2022-11-09T10:59:57.541Z,1.80
2022-11-09T11:02:28.062Z,2.03
2022-11-09T11:05:13.558Z,1.80
2022-11-09T11:10:17.579Z,2.33
2022-11-09T11:12:57.800Z,2.05
2022-11-09T11:15:39.694Z,1.92
2022-11-09T11:18:18.614Z,2.08
2022-11-09T11:20:52.603Z,1.40
2022-11-09T11:23:33.560Z,1.85
2022-11-09T11:26:37.540Z,2.05
2022-11-09T11:29:27.594Z,1.75
2022-11-09T11:32:01.564Z,2.22
2022-11-09T11:34:57.777Z,1.95
2022-11-09T11:37:37.607Z,2.53
2022-11-09T11:40:07.111Z,3.05
2022-11-09T11:43:11.575Z,1.92
2022-11-09T11:45:42.675Z,2.63
2022-11-09T11:48:40.605Z,1.90
2022-11-09T11:51:25.586Z,2.35
2022-11-09T11:54:27.656Z,2.30
2022-11-09T11:57:02.675Z,2.30
2022-11-09T12:00:06.590Z,1.70
2022-11-09T12:03:05.620Z,2.17
2022-11-09T12:06:02.562Z,2.10
2022-11-09T12:08:38.924Z,1.83
2022-11-09T12:12:00.534Z,2.20
2022-11-09T12:15:05.562Z,2.00
2022-11-09T12:17:45.636Z,1.77
2022-11-09T12:20:34.425Z,1.90
2022-11-09T12:23:20.818Z,2.20
2022-11-09T12:26:24.227Z,2.22
2022-11-09T12:29:25.535Z,1.67
2022-11-09T12:32:01.489Z,2.05
2022-11-09T12:34:41.531Z,2.00
2022-11-09T12:37:23.528Z,2.75
2022-11-09T12:40:00.641Z,1.95
2022-11-09T12:42:36.241Z,2.20
2022-11-09T12:45:28.567Z,1.80
2022-11-09T12:48:05.638Z,2.40
2022-11-09T12:50:40.618Z,3.00
2022-11-09T12:53:14.639Z,2.80
2022-11-09T12:55:54.846Z,3.08
2022-11-09T12:58:34.610Z,2.63
2022-11-09T13:01:11.642Z,2.95
2022-11-09T13:03:51.419Z,2.63
2022-11-09T13:06:34.634Z,2.58
2022-11-09T13:09:24.472Z,2.33
2022-11-09T13:11:59.568Z,2.30
2022-11-09T13:17:25.320Z,3.03
2022-11-09T13:20:03.608Z,2.65
2022-11-09T13:22:37.643Z,2.30
2022-11-09T13:25:50.664Z,2.08
2022-11-09T13:28:48.542Z,2.38
2022-11-09T13:32:00.587Z,2.08
2022-11-09T13:34:45.764Z,1.85
2022-11-09T13:37:42.593Z,2.10
2022-11-09T13:40:48.607Z,1.88
2022-11-09T13:43:43.723Z,1.88
2022-11-09T13:46:17.625Z,1.90
2022-11-09T13:49:01.871Z,2.40
2022-11-09T13:51:50.750Z,2.67
2022-11-09T13:54:36.473Z,2.33
2022-11-09T13:57:13.650Z,2.28
2022-11-09T13:59:49.053Z,2.10
2022-11-09T14:02:31.614Z,2.30
2022-11-09T14:05:08.730Z,1.52
2022-11-09T14:07:36.321Z,1.90
2022-11-09T14:10:16.671Z,2.22
2022-11-09T14:13:14.653Z,2.10
2022-11-09T14:15:54.542Z,2.20
2022-11-09T14:18:48.733Z,2.50
2022-11-09T14:21:47.623Z,1.67
2022-11-09T14:24:47.837Z,2.70
2022-11-09T14:27:25.562Z,2.20
2022-11-09T14:30:02.656Z,2.55
2022-11-09T14:32:42.617Z,2.40
2022-11-09T14:35:21.245Z,2.78
2022-11-09T14:37:56.554Z,2.00
2022-11-09T14:40:37.592Z,1.73
2022-11-09T14:43:35.567Z,2.45
2022-11-09T14:46:06.287Z,2.30
2022-11-09T14:48:44.818Z,3.55
2022-11-09T14:51:14.813Z,2.50
2022-11-09T14:53:50.722Z,2.70
2022-11-09T14:56:27.595Z,1.98
2022-11-09T14:58:57.187Z,2.60
2022-11-09T15:01:33.694Z,2.50
2022-11-09T15:04:17.237Z,2.20
2022-11-09T15:07:02.754Z,2.15
2022-11-09T15:12:09.661Z,3.25
2022-11-09T15:14:36.987Z,3.40
2022-11-09T15:17:24.671Z,2.95
2022-11-09T15:19:55.606Z,3.13
2022-11-09T15:22:47.671Z,3.83
2022-11-09T15:25:53.446Z,4.03
2022-11-09T15:28:35.786Z,3.60
2022-11-09T15:31:09.675Z,3.08
2022-11-09T15:34:09.662Z,2.83
2022-11-09T15:36:39.788Z,3.63
2022-11-09T15:39:27.702Z,4.10
2022-11-09T15:41:55.126Z,3.95
2022-11-09T15:44:22.556Z,3.38
2022-11-09T15:47:02.308Z,2.97
2022-11-09T15:49:30.501Z,3.35
2022-11-09T15:51:57.826Z,3.05
2022-11-09T15:54:31.731Z,2.63
2022-11-09T15:57:05.663Z,2.53
2022-11-09T15:59:39.694Z,2.90
2022-11-09T16:02:07.110Z,2.72
2022-11-09T16:04:40.602Z,3.10
2022-11-09T16:07:10.043Z,3.80
2022-11-09T16:09:47.723Z,3.55
2022-11-09T16:12:14.941Z,4.55
2022-11-09T16:14:48.702Z,3.90
2022-11-09T16:17:15.959Z,3.35
2022-11-09T16:19:49.691Z,3.17
2022-11-09T16:22:24.599Z,3.47
2022-11-09T16:24:58.758Z,2.88
2022-11-09T16:27:49.521Z,3.60
2022-11-09T16:30:18.341Z,3.17
2022-11-09T16:32:52.614Z,2.50
2022-11-09T16:35:28.068Z,3.22
2022-11-09T16:38:04.603Z,2.90
2022-11-09T16:40:32.087Z,2.60
2022-11-09T16:43:07.634Z,2.83
2022-11-09T16:45:34.934Z,2.42
2022-11-09T16:48:16.629Z,2.90
2022-11-09T16:50:51.706Z,3.10
2022-11-09T16:56:00.879Z,3.20
2022-11-09T16:58:28.504Z,2.87
2022-11-09T17:01:12.559Z,2.72
2022-11-09T17:03:40.353Z,3.47
2022-11-09T17:06:17.655Z,3.10
2022-11-09T17:08:51.579Z,3.10
2022-11-09T17:11:25.701Z,3.35
2022-11-09T17:13:58.058Z,3.55
2022-11-09T17:16:32.586Z,3.10
2022-11-09T17:19:00.185Z,2.95
2022-11-09T17:21:35.610Z,2.90
2022-11-09T17:24:15.991Z,3.40
2022-11-09T17:26:49.660Z,3.28
2022-11-09T17:29:16.878Z,3.58
2022-11-09T17:31:50.666Z,3.17
2022-11-09T17:34:17.802Z,3.65
2022-11-09T17:37:04.262Z,3.63
2022-11-09T17:39:33.490Z,3.67
2022-11-09T17:42:07.706Z,3.22
2022-11-09T17:44:42.656Z,3.20
2022-11-09T17:47:09.851Z,3.90
2022-11-09T17:49:43.649Z,2.85
2022-11-09T17:52:10.730Z,3.97
2022-11-09T17:54:38.155Z,3.53
2022-11-09T17:57:11.650Z,3.90
2022-11-09T17:59:45.687Z,4.07
2022-11-09T18:02:13.043Z,4.10
2022-11-09T18:04:41.195Z,3.95
2022-11-09T18:07:14.780Z,4.35
2022-11-09T18:09:42.914Z,5.05
2022-11-09T18:12:17.671Z,4.60
2022-11-09T18:14:44.875Z,4.97
2022-11-09T18:17:18.643Z,4.32
2022-11-09T18:19:45.733Z,4.03
2022-11-09T18:22:19.725Z,3.22
2022-11-09T18:25:03.691Z,3.33
2022-11-09T18:27:31.141Z,4.15
2022-11-09T18:30:05.662Z,5.72
2022-11-09T18:32:33.635Z,4.43
2022-11-09T18:35:01.270Z,4.03
2022-11-09T18:37:35.740Z,5.45
2022-11-09T18:40:04.301Z,5.40
2022-11-09T18:42:38.740Z,5.07
2022-11-09T18:45:07.720Z,5.72
2022-11-09T18:47:35.806Z,5.70
2022-11-09T18:50:09.900Z,4.50
2022-11-09T18:52:37.560Z,4.47
2022-11-09T18:55:11.938Z,4.45
2022-11-09T18:57:39.501Z,4.30
2022-11-09T19:00:08.290Z,4.05
2022-11-09T19:02:42.835Z,3.25
2022-11-09T19:05:11.382Z,3.53
2022-11-09T19:07:46.870Z,3.67
2022-11-09T19:10:14.802Z,2.92
2022-11-09T19:12:48.961Z,3.28
2022-11-09T19:15:16.710Z,3.97
2022-11-09T19:17:50.832Z,3.55
2022-11-09T19:20:19.115Z,4.60
2022-11-09T19:22:53.947Z,4.85
2022-11-09T19:25:28.103Z,6.13
2022-11-09T19:28:02.851Z,5.33
2022-11-09T19:30:30.447Z,4.35
2022-11-09T19:33:04.765Z,4.90
2022-11-09T19:35:33.958Z,4.13
2022-11-09T19:38:08.805Z,4.78
2022-11-09T19:40:39.802Z,3.95
2022-11-09T19:43:14.771Z,4.18
2022-11-09T19:45:49.993Z,4.10
2022-11-09T19:48:18.193Z,3.70
2022-11-09T19:50:56.762Z,3.78
2022-11-09T19:53:24.499Z,3.47
2022-11-09T19:56:04.737Z,3.40
2022-11-09T19:58:32.650Z,4.00
2022-11-09T20:01:19.793Z,3.65
2022-11-09T20:03:56.921Z,2.90
2022-11-09T20:06:31.977Z,3.38
2022-11-09T20:11:54.885Z,3.75
2022-11-09T20:14:29.881Z,3.65
2022-11-09T20:17:04.970Z,3.83
2022-11-09T20:22:07.811Z,5.15
2022-11-09T20:24:56.950Z,4.55
2022-11-09T20:27:32.297Z,4.20
2022-11-09T20:29:59.912Z,3.97
2022-11-09T20:32:33.891Z,3.75
2022-11-09T20:35:02.061Z,3.75
2022-11-09T20:37:35.861Z,3.70
2022-11-09T20:40:04.136Z,3.08
2022-11-09T20:42:37.927Z,3.05
2022-11-09T20:45:05.497Z,3.45
2022-11-09T20:48:03.265Z,3.13
2022-11-09T20:50:27.017Z,3.15
2022-11-09T20:53:00.807Z,3.08
2022-11-09T20:55:28.078Z,3.83
2022-11-09T20:58:01.986Z,2.95
2022-11-09T21:00:29.217Z,3.92
2022-11-09T21:03:02.856Z,4.05
2022-11-09T21:05:30.007Z,3.53
2022-11-09T21:07:57.167Z,3.83
2022-11-09T21:10:30.865Z,2.80
2022-11-09T21:12:58.084Z,3.40
2022-11-09T21:15:31.845Z,3.60
2022-11-09T21:17:59.155Z,3.10
2022-11-09T21:20:32.865Z,3.58
2022-11-09T21:23:19.776Z,3.25
2022-11-09T21:26:05.815Z,3.15
2022-11-09T21:28:58.840Z,2.67
2022-11-09T21:31:26.007Z,3.70
2022-11-09T21:33:53.678Z,3.20
2022-11-09T21:36:27.775Z,3.63
2022-11-09T21:39:01.692Z,4.13
2022-11-09T21:41:37.951Z,3.40
2022-11-09T21:44:14.650Z,3.38
2022-11-09T21:46:49.669Z,3.03
2022-11-09T21:49:16.710Z,3.60
2022-11-09T21:51:50.610Z,3.40
2022-11-09T21:54:17.816Z,2.90
2022-11-09T21:56:51.652Z,2.92
2022-11-09T21:59:18.903Z,3.05
2022-11-09T22:01:46.719Z,2.85
2022-11-09T22:04:20.597Z,3.58
2022-11-09T22:06:57.464Z,3.70
2022-11-09T22:09:50.462Z,3.78
2022-11-09T22:12:37.072Z,3.90
2022-11-09T22:15:29.644Z,3.90
2022-11-09T22:17:57.089Z,3.83
2022-11-09T22:20:48.761Z,4.40
2022-11-09T22:23:35.749Z,4.47
2022-11-09T22:26:02.919Z,4.10
2022-11-09T22:28:38.660Z,4.80
2022-11-09T22:31:07.751Z,3.65
2022-11-09T22:33:42.732Z,3.85
2022-11-09T22:36:12.879Z,4.18
2022-11-09T22:38:46.712Z,4.00
2022-11-09T22:41:15.320Z,3.92
2022-11-09T22:43:50.700Z,4.43
2022-11-09T22:46:25.732Z,4.82
2022-11-09T22:51:27.149Z,4.05
2022-11-09T22:53:54.341Z,4.38
2022-11-09T22:56:27.781Z,3.78
2022-11-09T22:58:54.863Z,3.83
2022-11-09T23:01:28.781Z,3.92
2022-11-09T23:03:55.955Z,4.40
2022-11-09T23:06:31.697Z,3.83
2022-11-09T23:08:58.851Z,4.72
2022-11-09T23:11:32.684Z,4.05
2022-11-09T23:13:59.863Z,4.57
2022-11-09T23:16:33.636Z,3.97
2022-11-09T23:19:01.351Z,4.03
2022-11-09T23:21:38.667Z,4.18
2022-11-09T23:24:44.680Z,3.90
2022-11-09T23:27:18.655Z,3.45
2022-11-09T23:29:52.648Z,4.00
2022-11-09T23:32:19.708Z,4.18
2022-11-09T23:34:53.658Z,3.97
2022-11-09T23:37:27.668Z,4.22
2022-11-09T23:39:54.723Z,2.95
2022-11-09T23:42:28.648Z,4.32
2022-11-09T23:45:02.696Z,4.40
2022-11-09T23:47:29.792Z,3.95
2022-11-09T23:50:03.633Z,4.28
2022-11-09T23:52:32.434Z,3.70
2022-11-09T23:55:05.648Z,3.85
2022-11-09T23:57:32.741Z,3.53
2022-11-09T23:59:59.810Z,4.13
